Flight Track Log - Related Links

Times and Time Zones

All times are in EDT time to prevent confusion due to time zone crossing. See the N432ER flight status page for this flight to view local times or setup timezone preferences in your user account.

Time Position Orientation Groundspeed Altitude Reporting Facility
EDT Latitude Longitude Course Direction KTS MPH feet Rate Location/Type
Sat 01:04:12 PM 43.0822 -89.3344 163° South 68 78 4,100  Level Chicago Center
Sat 01:05:13 PM 43.0639 -89.3242 158° South 68 78 4,700 439 Climbing Chicago Center
Sat 01:06:15 PM 43.0422 -89.3236 179° South 73 84 5,000 146 Climbing Chicago Center
Sat 01:07:16 PM 43.0136 -89.3189 173° South 89 102 5,000  Level Chicago Center
Sat 01:08:00 PM 42.9776 -89.2643 163° South  Level FlightAware Approximate
Sat 01:08:18 PM 42.9861 -89.3042 159° South 99 114 5,000  Level Chicago Center
Sat 01:09:00 PM 42.9514 -89.2533 163° South  Level FlightAware Approximate
Sat 01:09:19 PM 42.9569 -89.2775 146° Southeast 104 120 5,100  Level Chicago Center
Sat 01:10:21 PM 42.9289 -89.2700 169° South 107 123 5,000 -48 Descending Chicago Center
Sat 01:11:23 PM 42.8997 -89.2672 176° South 105 121 5,000  Level Chicago Center
Sat 01:12:24 PM 42.8717 -89.2631 174° South 103 119 5,000  Level Chicago Center
Sat 01:13:26 PM 42.8508 -89.2350 135° Southeast 105 121 5,000  Level Chicago Center
Sat 01:14:27 PM 42.8256 -89.2169 152° Southeast 104 120 5,000  Level Chicago Center
Sat 01:15:29 PM 42.7997 -89.2014 156° South 103 119 5,000 -48 Level Chicago Center
Sat 01:16:31 PM 42.7681 -89.1906 166° South 102 117 4,900 -49 Descending Chicago Center
Sat 01:17:32 PM 42.7428 -89.1878 175° South 97 112 4,900 49 Level Chicago Center
Sat 01:18:34 PM 42.7172 -89.1853 176° South 95 109 5,000 48 Climbing Chicago Center
Sat 01:19:36 PM 42.6936 -89.1739 160° South 91 105 5,000 48 Level Chicago Center
Sat 01:20:38 PM 42.6714 -89.1517 144° Southeast 93 107 5,100  Climbing Chicago Center
Sat 01:21:39 PM 42.6447 -89.1325 152° Southeast 100 115 5,000 -49 Descending Chicago Center
Sat 01:22:41 PM 42.6106 -89.1319 179° South 105 121 5,000  Level Chicago Center
Sat 01:23:43 PM 42.5844 -89.1167 157° South 103 119 5,000  Level Chicago Center
Sat 01:24:45 PM 42.5594 -89.0983 152° Southeast 103 119 5,000  Level Chicago Center
Sat 01:25:46 PM 42.5519 -89.0636 106° East 109 125 5,000  Level Chicago Center
Sat 01:26:48 PM 42.5475 -89.0239 99° East 106 122 5,000 -387 Level Chicago Center
Sat 01:27:50 PM 42.5411 -88.9831 102° East 107 123 4,200 -484 Descending Chicago Center
Sat 01:28:52 PM 42.5336 -88.9428 104° East 109 125 4,000 -98 Descending Chicago Center
Sat 01:29:53 PM 42.5289 -88.8961 98° East 108 124 4,000  Level Chicago Center
Sat 01:30:55 PM 42.5217 -88.8564 104° East 108 124 4,000 -48 Level Chicago Center
Sat 01:31:57 PM 42.5103 -88.8164 111° Southeast 110 127 3,900 48 Descending Chicago Center
Sat 01:32:59 PM 42.4942 -88.7833 123° Southeast 109 125 4,100  Climbing Chicago Center
Sat 01:34:00 PM 42.4878 -88.7431 102° East 108 124 3,900  Descending Chicago Center
Sat 01:35:02 PM 42.4739 -88.7083 118° Southeast 109 125 4,100 48 Climbing Chicago Center
Sat 01:36:04 PM 42.4531 -88.6758 131° Southeast 100 115 4,000 -48 Descending Chicago Center
Sat 01:37:06 PM 42.4436 -88.6350 107° East 108 124 4,000 -49 Level Chicago Center
Sat 01:38:07 PM 42.4261 -88.6003 124° Southeast 113 130 3,900  Descending Chicago Center
Sat 01:39:09 PM 42.4053 -88.5728 136° Southeast 108 124 4,000 97 Climbing Chicago Center
Sat 01:40:11 PM 42.3867 -88.5489 137° Southeast 97 112 4,100  Climbing Chicago Center
Sat 01:41:13 PM 42.3681 -88.5192 130° Southeast 101 116 4,000 -146 Descending Chicago Center
Sat 01:42:14 PM 42.3533 -88.4825 119° Southeast 97 112 3,800 -439 Descending Chicago Center
Sat 01:43:16 PM 42.3314 -88.4569 139° Southeast 100 115 3,100 -581 Descending Chicago Center
Sat 01:44:18 PM 42.3111 -88.4267 132° Southeast 103 119 2,600 -290 Descending Chicago Center
Sat 01:45:20 PM 42.2892 -88.4014 140° Southeast 102 117 2,500 -97 Descending Chicago Center

Login

Don't have an account? Register now (free) for customized features, flight alerts, and more!